createdAt,value
2022-08-05T00:02:07.900Z,18.00
2022-08-05T00:04:40.249Z,18.00
2022-08-05T00:07:21.808Z,17.90
2022-08-05T00:09:54.507Z,17.90
2022-08-05T00:12:21.727Z,17.80
2022-08-05T00:14:51.667Z,17.70
2022-08-05T00:17:19.657Z,17.70
2022-08-05T00:20:02.051Z,17.70
2022-08-05T00:22:30.077Z,17.70
2022-08-05T00:24:58.082Z,17.70
2022-08-05T00:27:35.880Z,17.60
2022-08-05T00:30:04.556Z,17.50
2022-08-05T00:32:31.635Z,17.50
2022-08-05T00:35:06.889Z,17.40
2022-08-05T00:37:35.901Z,17.50
2022-08-05T00:40:28.142Z,17.40
2022-08-05T00:42:57.577Z,17.40
2022-08-05T00:45:27.894Z,17.40
2022-08-05T00:48:05.112Z,17.30
2022-08-05T00:50:32.795Z,17.20
2022-08-05T00:52:59.808Z,17.20
2022-08-05T00:55:42.650Z,17.20
2022-08-05T00:58:14.739Z,17.20
2022-08-05T01:00:42.242Z,17.20
2022-08-05T01:03:10.487Z,17.00
2022-08-05T01:05:49.455Z,17.00
2022-08-05T01:08:40.029Z,17.00
2022-08-05T01:11:36.640Z,17.00
2022-08-05T01:14:08.755Z,17.00
2022-08-05T01:16:52.265Z,17.10
2022-08-05T01:20:00.691Z,17.00
2022-08-05T01:22:57.381Z,17.00
2022-08-05T01:25:59.529Z,17.10
2022-08-05T01:28:45.671Z,16.90
2022-08-05T01:31:27.897Z,16.90
2022-08-05T01:34:05.511Z,16.90
2022-08-05T01:36:42.309Z,16.90
2022-08-05T01:39:14.150Z,16.90
2022-08-05T01:42:01.117Z,16.70
2022-08-05T01:44:34.404Z,16.80
2022-08-05T01:47:02.593Z,16.80
2022-08-05T01:50:00.279Z,16.80
2022-08-05T01:52:19.666Z,16.80
2022-08-05T01:54:53.197Z,16.60
2022-08-05T01:58:11.162Z,16.80
2022-08-05T02:00:13.682Z,16.60
2022-08-05T02:02:51.149Z,16.60
2022-08-05T02:05:18.319Z,16.60
2022-08-05T02:07:59.866Z,16.70
2022-08-05T02:10:28.672Z,16.60
2022-08-05T02:12:58.934Z,16.60
2022-08-05T02:15:35.730Z,16.70
2022-08-05T02:18:32.941Z,16.60
2022-08-05T02:21:22.184Z,16.50
2022-08-05T02:23:52.496Z,16.50
2022-08-05T02:26:33.557Z,16.60
2022-08-05T02:29:00.548Z,16.50
2022-08-05T02:31:28.583Z,16.40
2022-08-05T02:34:05.275Z,16.40
2022-08-05T02:36:32.986Z,16.30
2022-08-05T02:39:00.717Z,16.40
2022-08-05T02:41:43.286Z,16.20
2022-08-05T02:44:15.667Z,16.30
2022-08-05T02:46:59.701Z,16.20
2022-08-05T02:49:36.195Z,16.10
2022-08-05T02:52:11.614Z,16.20
2022-08-05T02:54:42.294Z,16.20
2022-08-05T02:58:09.337Z,16.10
2022-08-05T03:00:06.706Z,16.10
2022-08-05T03:02:43.657Z,16.10
2022-08-05T03:05:12.155Z,16.10
2022-08-05T03:08:06.943Z,16.10
2022-08-05T03:10:27.724Z,16.10
2022-08-05T03:12:54.991Z,16.00
2022-08-05T03:15:25.287Z,16.00
2022-08-05T03:17:55.467Z,16.00
2022-08-05T03:20:23.644Z,16.00
2022-08-05T03:22:52.701Z,16.00
2022-08-05T03:25:33.395Z,16.00
2022-08-05T03:28:08.465Z,15.90
2022-08-05T03:30:35.969Z,16.00
2022-08-05T03:33:05.596Z,15.90
2022-08-05T03:35:33.790Z,16.00
2022-08-05T03:38:01.632Z,16.00
2022-08-05T03:40:32.353Z,16.10
2022-08-05T03:43:01.499Z,16.00
2022-08-05T03:45:55.285Z,16.00
2022-08-05T03:48:25.774Z,15.90
2022-08-05T03:52:34.875Z,16.00
2022-08-05T03:55:53.363Z,15.80
2022-08-05T03:56:46.407Z,15.80
2022-08-05T03:59:46.716Z,15.80
2022-08-05T04:02:17.478Z,15.70
2022-08-05T04:05:01.847Z,15.60
2022-08-05T04:07:28.998Z,15.50
2022-08-05T04:10:03.011Z,15.50
2022-08-05T04:12:30.660Z,15.50
2022-08-05T04:14:58.599Z,15.50
2022-08-05T04:17:25.938Z,15.60
2022-08-05T04:20:20.396Z,15.60
2022-08-05T04:22:50.960Z,15.60
2022-08-05T04:25:18.857Z,15.70
2022-08-05T04:27:57.416Z,15.70
2022-08-05T04:30:26.531Z,15.80
2022-08-05T04:32:53.718Z,15.80
2022-08-05T04:35:20.709Z,15.80
2022-08-05T04:38:02.580Z,15.80
2022-08-05T04:40:36.880Z,15.90
2022-08-05T04:43:04.150Z,16.30
2022-08-05T04:45:48.351Z,16.00
2022-08-05T04:48:27.002Z,16.00
2022-08-05T04:51:01.939Z,16.10
2022-08-05T04:53:33.653Z,16.10
2022-08-05T04:56:33.627Z,16.20
2022-08-05T04:58:50.491Z,16.20
2022-08-05T05:02:05.725Z,16.40
2022-08-05T05:04:05.252Z,16.50
2022-08-05T05:06:39.694Z,16.60
2022-08-05T05:09:13.988Z,16.70
2022-08-05T05:11:54.555Z,16.80
2022-08-05T05:14:27.810Z,16.90
2022-08-05T05:17:00.451Z,17.10
2022-08-05T05:19:36.900Z,17.10
2022-08-05T05:22:23.549Z,17.20
2022-08-05T05:24:58.549Z,17.30
2022-08-05T05:27:41.506Z,17.40
2022-08-05T05:30:30.627Z,17.50
2022-08-05T05:33:00.484Z,17.70
2022-08-05T05:35:34.251Z,17.70
2022-08-05T05:38:09.057Z,17.80
2022-08-05T05:40:43.849Z,17.90
2022-08-05T05:43:16.573Z,18.00
2022-08-05T05:45:55.732Z,18.00
2022-08-05T05:48:27.768Z,18.20
2022-08-05T05:50:55.166Z,18.40
2022-08-05T05:53:22.999Z,18.50
2022-08-05T05:55:52.494Z,18.60
2022-08-05T05:58:31.413Z,18.70
2022-08-05T06:01:12.256Z,18.80
2022-08-05T06:04:01.650Z,18.90
2022-08-05T06:06:30.871Z,19.10
2022-08-05T06:08:59.102Z,19.20
2022-08-05T06:11:26.762Z,19.40
2022-08-05T06:13:56.318Z,19.40
2022-08-05T06:16:29.281Z,19.60
2022-08-05T06:19:01.288Z,19.60
2022-08-05T06:24:16.264Z,19.80
2022-08-05T06:26:51.088Z,20.00
2022-08-05T06:32:01.601Z,20.20
2022-08-05T06:34:29.699Z,20.40
2022-08-05T06:36:58.280Z,20.50
2022-08-05T06:39:27.914Z,20.70
2022-08-05T06:41:59.406Z,20.70
2022-08-05T06:44:27.152Z,21.00
2022-08-05T06:46:54.555Z,21.10
2022-08-05T06:50:00.828Z,21.20
2022-08-05T06:52:38.181Z,21.40
2022-08-05T06:54:55.652Z,21.70
2022-08-05T06:58:03.305Z,21.70
2022-08-05T07:00:10.649Z,21.90
2022-08-05T07:02:43.969Z,22.10
2022-08-05T07:05:18.773Z,22.20
2022-08-05T07:07:49.087Z,22.30
2022-08-05T07:10:16.459Z,22.50
2022-08-05T07:13:02.886Z,22.70
2022-08-05T07:16:01.045Z,22.70
2022-08-05T07:18:32.473Z,23.00
2022-08-05T07:21:04.762Z,23.20
2022-08-05T07:23:32.927Z,23.40
2022-08-05T07:25:59.883Z,23.50
2022-08-05T07:28:27.283Z,23.80
2022-08-05T07:30:55.213Z,24.00
2022-08-05T07:33:36.440Z,24.10
2022-08-05T07:36:20.916Z,24.20
2022-08-05T07:38:49.369Z,24.60
2022-08-05T07:42:08.001Z,24.70
2022-08-05T07:44:18.734Z,25.10
2022-08-05T07:46:49.381Z,25.00
2022-08-05T07:49:18.291Z,25.20
2022-08-05T07:51:53.717Z,25.30
2022-08-05T07:54:31.130Z,25.40
2022-08-05T07:57:22.882Z,25.50
2022-08-05T07:59:49.127Z,25.70
2022-08-05T08:02:17.947Z,25.80
2022-08-05T08:04:48.974Z,25.90
2022-08-05T08:07:22.414Z,25.90
2022-08-05T08:09:52.243Z,26.00
2022-08-05T08:12:37.283Z,26.00
2022-08-05T08:15:09.474Z,26.30
2022-08-05T08:17:46.110Z,26.30
2022-08-05T08:21:01.078Z,26.50
2022-08-05T08:24:02.215Z,26.70
2022-08-05T08:26:02.606Z,26.70
2022-08-05T08:28:36.587Z,26.90
2022-08-05T08:31:06.298Z,27.00
2022-08-05T08:33:37.593Z,27.10
2022-08-05T08:38:57.021Z,27.20
2022-08-05T08:41:26.088Z,27.30
2022-08-05T08:45:19.920Z,27.50
2022-08-05T08:47:00.309Z,27.70
2022-08-05T08:50:06.225Z,27.60
2022-08-05T08:55:13.150Z,27.90
2022-08-05T08:57:42.307Z,28.00
2022-08-05T09:00:25.426Z,28.20
2022-08-05T09:02:54.570Z,28.30
2022-08-05T09:05:38.520Z,28.50
2022-08-05T09:20:57.307Z,29.30
2022-08-05T09:23:27.236Z,29.10
2022-08-05T09:26:20.896Z,29.20
2022-08-05T09:41:18.056Z,29.80
2022-08-05T09:52:16.799Z,30.10
2022-08-05T09:54:58.770Z,30.30
2022-08-05T09:57:29.369Z,30.40
2022-08-05T10:00:19.244Z,30.60
2022-08-05T10:08:37.439Z,31.00
2022-08-05T10:11:15.546Z,30.80
2022-08-05T10:16:41.622Z,31.10
2022-08-05T10:19:11.677Z,31.50
2022-08-05T10:21:40.017Z,31.40
2022-08-05T10:24:13.746Z,31.50
2022-08-05T10:26:51.441Z,31.40
2022-08-05T10:29:23.535Z,31.40
2022-08-05T10:32:52.206Z,31.40
2022-08-05T10:35:01.028Z,31.50
2022-08-05T10:37:40.252Z,31.80
2022-08-05T10:40:58.026Z,31.60
2022-08-05T10:43:36.579Z,32.20
2022-08-05T10:46:06.489Z,32.50
2022-08-05T10:48:52.518Z,32.30
2022-08-05T10:51:28.475Z,32.30
2022-08-05T10:54:01.793Z,32.40
2022-08-05T10:56:47.141Z,32.50
2022-08-05T11:00:02.547Z,32.70
2022-08-05T11:02:14.576Z,32.70
2022-08-05T11:05:00.252Z,32.80
2022-08-05T11:07:32.931Z,33.00
2022-08-05T11:10:27.739Z,33.10
2022-08-05T11:12:57.129Z,33.20
2022-08-05T11:16:00.277Z,33.40
2022-08-05T11:18:32.551Z,33.40
2022-08-05T11:20:59.826Z,33.50
2022-08-05T11:23:33.463Z,33.70
2022-08-05T11:26:29.085Z,33.80
2022-08-05T11:29:11.358Z,33.80
2022-08-05T11:31:56.648Z,34.00
2022-08-05T11:34:37.916Z,34.30
2022-08-05T11:37:09.255Z,34.70
2022-08-05T11:40:00.828Z,34.60
2022-08-05T11:42:30.301Z,34.60
2022-08-05T11:45:03.634Z,34.50
2022-08-05T11:47:49.383Z,34.70
2022-08-05T11:50:17.917Z,34.50
2022-08-05T11:52:48.835Z,35.00
2022-08-05T11:55:17.272Z,35.20
2022-08-05T11:58:09.150Z,35.00
2022-08-05T12:00:38.603Z,35.30
2022-08-05T12:03:28.710Z,35.50
2022-08-05T12:06:03.253Z,35.80
2022-08-05T12:08:33.326Z,35.90
2022-08-05T12:11:05.419Z,36.20
2022-08-05T12:13:48.719Z,36.30
2022-08-05T12:16:19.033Z,36.20
2022-08-05T12:18:52.803Z,36.40
2022-08-05T12:21:26.897Z,36.80
2022-08-05T12:24:06.862Z,37.30
2022-08-05T12:26:47.823Z,37.60
2022-08-05T12:29:23.010Z,37.60
2022-08-05T12:34:31.701Z,38.00
2022-08-05T12:37:10.614Z,37.90
2022-08-05T12:39:39.003Z,37.90
2022-08-05T12:42:14.934Z,38.30
2022-08-05T12:44:43.088Z,38.70
2022-08-05T12:47:12.434Z,38.80
2022-08-05T12:50:03.316Z,38.70
2022-08-05T12:52:39.208Z,38.60
2022-08-05T12:55:26.483Z,38.80
2022-08-05T12:58:48.634Z,38.60
2022-08-05T13:02:01.665Z,38.90
2022-08-05T13:03:34.492Z,38.80
2022-08-05T13:06:11.660Z,38.90
2022-08-05T13:08:39.024Z,39.10
2022-08-05T13:11:07.965Z,39.30
2022-08-05T13:14:05.024Z,39.20
2022-08-05T13:16:27.707Z,39.70
2022-08-05T13:18:58.364Z,39.30
2022-08-05T13:21:28.537Z,39.50
2022-08-05T13:24:13.595Z,39.60
2022-08-05T13:26:54.786Z,39.70
2022-08-05T13:29:37.293Z,39.60
2022-08-05T13:32:05.657Z,39.90
2022-08-05T13:34:33.242Z,39.90
2022-08-05T13:37:00.649Z,39.60
2022-08-05T13:40:15.866Z,39.80
2022-08-05T13:42:15.370Z,39.50
2022-08-05T13:44:45.449Z,38.90
2022-08-05T13:47:35.741Z,38.90
2022-08-05T13:50:04.686Z,39.20
2022-08-05T13:52:35.420Z,39.50
2022-08-05T13:55:07.691Z,39.40
2022-08-05T13:57:51.287Z,39.50
2022-08-05T14:00:27.106Z,39.60
2022-08-05T14:03:01.113Z,39.50
2022-08-05T14:05:48.020Z,39.30
2022-08-05T14:08:21.263Z,39.60
2022-08-05T14:10:54.373Z,39.50
2022-08-05T14:13:32.253Z,39.70
2022-08-05T14:16:07.160Z,40.00
2022-08-05T14:18:38.021Z,40.30
2022-08-05T14:22:08.502Z,40.40
2022-08-05T14:23:52.139Z,40.30
2022-08-05T14:26:38.655Z,40.40
2022-08-05T14:29:16.289Z,40.20
2022-08-05T14:32:03.493Z,40.00
2022-08-05T14:34:35.023Z,40.10
2022-08-05T14:37:03.028Z,39.90
2022-08-05T14:39:30.037Z,39.50
2022-08-05T14:42:21.099Z,39.30
2022-08-05T14:44:49.133Z,39.30
2022-08-05T14:47:16.109Z,39.50
2022-08-05T14:49:59.610Z,39.30
2022-08-05T14:52:51.800Z,39.10
2022-08-05T14:55:15.839Z,39.00
2022-08-05T14:57:54.352Z,39.40
2022-08-05T15:00:27.977Z,39.30
2022-08-05T15:02:56.745Z,39.20
2022-08-05T15:05:29.678Z,39.30
2022-08-05T15:08:08.574Z,38.90
2022-08-05T15:10:46.213Z,38.70
2022-08-05T15:13:13.924Z,38.70
2022-08-05T15:15:54.472Z,38.60
2022-08-05T15:18:23.559Z,38.40
2022-08-05T15:20:50.921Z,38.20
2022-08-05T15:23:18.161Z,38.20
2022-08-05T15:25:52.048Z,38.00
2022-08-05T15:28:24.291Z,37.60
2022-08-05T15:30:54.872Z,37.40
2022-08-05T15:34:04.084Z,37.20
2022-08-05T15:36:17.763Z,36.90
2022-08-05T15:40:41.001Z,36.80
2022-08-05T15:41:56.268Z,36.60
2022-08-05T15:44:27.611Z,36.40
2022-08-05T15:46:55.820Z,36.20
2022-08-05T15:49:41.837Z,35.90
2022-08-05T15:52:16.242Z,35.80
2022-08-05T15:54:56.686Z,35.70
2022-08-05T15:57:23.938Z,35.40
2022-08-05T15:59:56.682Z,35.10
2022-08-05T16:02:28.855Z,35.00
2022-08-05T16:04:56.481Z,34.90
2022-08-05T16:07:23.430Z,35.00
2022-08-05T16:09:50.790Z,34.80
2022-08-05T16:12:21.058Z,34.80
2022-08-05T16:14:48.384Z,34.80
2022-08-05T16:17:16.287Z,34.60
2022-08-05T16:20:04.779Z,34.50
2022-08-05T16:22:34.083Z,34.40
2022-08-05T16:25:08.187Z,34.30
2022-08-05T16:28:00.987Z,34.20
2022-08-05T16:30:26.117Z,34.10
2022-08-05T16:32:54.158Z,34.10
2022-08-05T16:35:28.578Z,33.90
2022-08-05T16:38:16.429Z,33.90
2022-08-05T16:40:52.033Z,33.80
2022-08-05T16:43:27.732Z,33.60
2022-08-05T16:46:04.965Z,33.50
2022-08-05T16:48:38.590Z,33.40
2022-08-05T16:51:09.157Z,33.20
2022-08-05T16:54:04.334Z,33.10
2022-08-05T16:56:29.239Z,33.10
2022-08-05T16:58:57.164Z,32.80
2022-08-05T17:01:24.636Z,32.70
2022-08-05T17:03:52.202Z,32.70
2022-08-05T17:06:20.287Z,32.60
2022-08-05T17:08:53.441Z,32.40
2022-08-05T17:11:23.702Z,32.20
2022-08-05T17:14:00.306Z,32.10
2022-08-05T17:16:37.275Z,32.20
2022-08-05T17:19:09.768Z,32.00
2022-08-05T17:21:39.762Z,31.30
2022-08-05T17:24:28.420Z,30.80
2022-08-05T17:26:56.467Z,30.40
2022-08-05T17:29:33.828Z,30.20
2022-08-05T17:32:11.282Z,30.00
2022-08-05T17:34:39.087Z,29.70
2022-08-05T17:37:35.988Z,29.60
2022-08-05T17:39:55.757Z,29.30
2022-08-05T17:42:28.353Z,29.10
2022-08-05T17:44:57.294Z,28.90
2022-08-05T17:47:24.481Z,28.80
2022-08-05T17:50:03.659Z,28.60
2022-08-05T17:52:53.129Z,28.40
2022-08-05T17:55:22.749Z,28.30
2022-08-05T17:57:54.786Z,28.20
2022-08-05T18:00:21.785Z,28.00
2022-08-05T18:02:56.773Z,27.70
2022-08-05T18:05:24.050Z,27.60
2022-08-05T18:07:56.882Z,27.40
2022-08-05T18:10:23.947Z,27.30
2022-08-05T18:12:51.481Z,27.40
2022-08-05T18:15:18.734Z,27.40
2022-08-05T18:18:01.459Z,27.30
2022-08-05T18:20:31.866Z,27.20
2022-08-05T18:23:00.358Z,27.10
2022-08-05T18:25:35.965Z,26.90
2022-08-05T18:28:05.185Z,26.80
2022-08-05T18:30:33.306Z,26.80
2022-08-05T18:33:01.064Z,26.70
2022-08-05T18:35:49.576Z,26.70
2022-08-05T18:38:19.294Z,26.70
2022-08-05T19:20:55.944Z,25.10
2022-08-05T19:24:05.377Z,24.90
2022-08-05T19:26:11.163Z,24.80
2022-08-05T19:28:43.210Z,24.80
2022-08-05T19:31:17.977Z,24.80
2022-08-05T19:33:48.522Z,24.90
2022-08-05T19:36:23.589Z,24.80
2022-08-05T19:38:50.577Z,24.70
2022-08-05T19:41:17.555Z,24.60
2022-08-05T19:44:05.402Z,24.40
2022-08-05T19:46:35.434Z,24.40
2022-08-05T19:49:06.920Z,24.30
2022-08-05T19:52:06.011Z,24.30
2022-08-05T19:54:29.453Z,24.20
2022-08-05T19:57:02.407Z,24.10
2022-08-05T19:59:54.586Z,24.10
2022-08-05T20:02:21.147Z,24.00
2022-08-05T20:04:48.634Z,24.00
2022-08-05T20:07:15.680Z,24.10
2022-08-05T20:10:04.876Z,24.10
2022-08-05T20:12:38.873Z,24.10
2022-08-05T20:15:13.932Z,24.10
2022-08-05T20:17:40.946Z,24.10
2022-08-05T20:20:10.876Z,24.10
2022-08-05T20:22:38.245Z,24.10
2022-08-05T20:25:09.423Z,24.00
2022-08-05T20:27:42.122Z,23.90
2022-08-05T20:30:10.531Z,23.80
2022-08-05T20:32:37.574Z,23.80
2022-08-05T20:35:12.176Z,23.70
2022-08-05T20:38:05.499Z,23.80
2022-08-05T20:40:27.377Z,23.90
2022-08-05T20:42:59.946Z,24.00
2022-08-05T20:49:14.676Z,24.20
2022-08-05T20:51:45.549Z,24.10
2022-08-05T20:54:20.539Z,24.10
2022-08-05T20:56:48.947Z,24.10
2022-08-05T20:59:26.274Z,24.20
2022-08-05T21:01:57.141Z,24.20
2022-08-05T21:04:27.051Z,24.10
2022-08-05T21:06:54.925Z,24.10
2022-08-05T21:09:23.027Z,24.10
2022-08-05T21:12:10.286Z,24.00
2022-08-05T21:14:38.694Z,24.10
2022-08-05T21:17:06.345Z,24.20
2022-08-05T21:19:47.139Z,24.20
2022-08-05T21:22:23.490Z,24.20
2022-08-05T21:24:54.863Z,24.10
2022-08-05T21:27:25.189Z,24.20
2022-08-05T21:29:55.865Z,24.30
2022-08-05T21:32:27.353Z,24.30
2022-08-05T21:35:17.777Z,24.30
2022-08-05T21:37:52.942Z,24.30
2022-08-05T21:40:22.351Z,24.40
2022-08-05T21:42:51.810Z,24.30
2022-08-05T21:45:24.767Z,24.30
2022-08-05T21:48:06.615Z,24.40
2022-08-05T21:50:37.262Z,24.50
2022-08-05T21:53:16.084Z,24.50
2022-08-05T21:56:04.690Z,24.40
2022-08-05T21:58:32.236Z,24.50
2022-08-05T22:00:59.733Z,24.50
2022-08-05T22:03:48.835Z,24.60
2022-08-05T22:06:16.012Z,24.60
2022-08-05T22:08:51.828Z,24.80
2022-08-05T22:11:35.073Z,24.90
2022-08-05T22:14:34.117Z,24.90
2022-08-05T22:16:55.895Z,24.90
2022-08-05T22:20:02.773Z,25.00
2022-08-05T22:22:12.195Z,25.40
2022-08-05T22:25:00.270Z,25.60
2022-08-05T22:28:08.390Z,25.70
2022-08-05T22:30:35.672Z,25.70
2022-08-05T22:33:15.538Z,25.80
2022-08-05T22:35:48.586Z,25.70
2022-08-05T22:38:19.682Z,25.80
2022-08-05T22:40:49.346Z,25.70
2022-08-05T22:43:36.674Z,25.90
2022-08-05T22:46:12.177Z,25.90
2022-08-05T22:48:41.437Z,26.00
2022-08-05T22:51:15.742Z,25.90
2022-08-05T22:53:49.919Z,25.90
2022-08-05T22:56:17.655Z,25.90
2022-08-05T22:58:58.735Z,25.80
2022-08-05T23:02:03.985Z,25.80
2022-08-05T23:04:14.274Z,25.70
2022-08-05T23:06:42.574Z,25.60
2022-08-05T23:09:26.937Z,25.50
2022-08-05T23:11:55.208Z,25.40
2022-08-05T23:14:31.857Z,25.40
2022-08-05T23:17:23.967Z,25.30
2022-08-05T23:19:56.558Z,25.30
2022-08-05T23:22:27.390Z,25.20
2022-08-05T23:24:55.211Z,25.10
2022-08-05T23:27:22.702Z,25.10
2022-08-05T23:29:50.945Z,25.00
2022-08-05T23:32:22.809Z,25.00
2022-08-05T23:34:50.841Z,25.00
2022-08-05T23:37:18.261Z,24.90
2022-08-05T23:39:54.227Z,24.90
2022-08-05T23:42:23.354Z,24.90
2022-08-05T23:44:56.153Z,24.90
2022-08-05T23:47:23.327Z,24.90
2022-08-05T23:49:55.646Z,24.80
2022-08-05T23:52:27.768Z,24.80
2022-08-05T23:54:59.825Z,24.70
2022-08-05T23:57:28.089Z,24.60
